NCAR-RAP Real-Time Weather Data

Output produced by METARs form (10 April 2020  07:27 UTC)
found at http://weather.rap.ucar.edu/surface/
 
KYNG 100651Z 29011KT 9SM -SN SCT032 BKN040 BKN046 02/M04 A2959 RMK AO2 SLP027 P0000 T00171039